createdAt,value
2018-07-06T00:01:05.310Z,69.30
2018-07-06T00:03:44.991Z,69.30
2018-07-06T00:06:24.687Z,69.30
2018-07-06T00:09:04.745Z,69.30
2018-07-06T00:11:44.375Z,69.30
2018-07-06T00:14:23.933Z,69.30
2018-07-06T00:17:03.410Z,69.30
2018-07-06T00:19:43.040Z,69.30
2018-07-06T00:22:22.759Z,69.30
2018-07-06T00:25:02.328Z,69.30
2018-07-06T00:27:41.895Z,69.30
2018-07-06T00:30:21.713Z,69.30
2018-07-06T00:33:01.393Z,70.00
2018-07-06T00:35:41.057Z,69.40
2018-07-06T00:38:20.699Z,69.40
2018-07-06T00:41:00.333Z,69.30
2018-07-06T00:43:39.875Z,69.40
2018-07-06T00:46:19.492Z,70.00
2018-07-06T00:54:06.427Z,69.40
2018-07-06T00:59:19.769Z,69.30
2018-07-06T01:04:32.981Z,69.30
2018-07-06T01:07:13.764Z,69.60
2018-07-06T01:09:53.450Z,69.70
2018-07-06T01:12:38.541Z,70.00
2018-07-06T01:15:48.871Z,70.40
2018-07-06T01:18:28.383Z,70.50
2018-07-06T01:21:07.900Z,70.50
2018-07-06T01:23:47.591Z,70.40
2018-07-06T01:26:27.272Z,70.40
2018-07-06T01:29:06.947Z,70.50
2018-07-06T01:31:46.605Z,70.60
2018-07-06T01:34:26.452Z,70.60
2018-07-06T01:37:05.985Z,70.40
2018-07-06T01:39:45.547Z,70.10
2018-07-06T01:42:25.346Z,70.10
2018-07-06T01:45:05.162Z,70.10
2018-07-06T01:47:44.699Z,69.80
2018-07-06T01:50:24.625Z,69.30
2018-07-06T01:53:04.119Z,69.30
2018-07-06T01:55:43.882Z,69.60
2018-07-06T01:58:23.393Z,69.30
2018-07-06T02:01:03.059Z,69.30
2018-07-06T02:03:42.843Z,69.30
2018-07-06T02:08:55.871Z,69.30
2018-07-06T02:11:36.129Z,69.40
2018-07-06T02:14:16.158Z,69.40
2018-07-06T02:16:55.791Z,69.40
2018-07-06T02:19:35.415Z,69.40
2018-07-06T02:22:15.055Z,69.40
2018-07-06T02:24:54.730Z,69.30
2018-07-06T02:27:34.367Z,69.30
2018-07-06T02:30:14.318Z,69.30
2018-07-06T02:32:53.842Z,69.30
2018-07-06T02:35:33.455Z,69.30
2018-07-06T02:38:13.171Z,69.20
2018-07-06T02:40:52.774Z,69.40
2018-07-06T02:43:32.512Z,69.70
2018-07-06T02:46:12.264Z,69.80
2018-07-06T02:48:51.959Z,69.60
2018-07-06T02:51:31.623Z,69.80
2018-07-06T02:54:11.415Z,69.80
2018-07-06T02:56:51.496Z,69.80
2018-07-06T02:59:31.135Z,69.80
2018-07-06T03:02:10.772Z,69.50
2018-07-06T03:04:50.442Z,69.60
2018-07-06T03:07:30.135Z,69.60
2018-07-06T03:10:09.968Z,69.50
2018-07-06T03:12:49.529Z,69.50
2018-07-06T03:15:29.233Z,69.60
2018-07-06T03:18:08.864Z,69.60
2018-07-06T03:20:48.555Z,69.60
2018-07-06T03:23:28.005Z,69.40
2018-07-06T03:26:07.614Z,69.30
2018-07-06T03:28:47.308Z,69.30
2018-07-06T03:31:26.706Z,69.30
2018-07-06T03:34:06.448Z,69.40
2018-07-06T03:36:45.926Z,69.40
2018-07-06T03:39:25.626Z,69.30
2018-07-06T03:42:05.344Z,69.30
2018-07-06T03:44:44.906Z,69.30
2018-07-06T03:47:24.456Z,69.30
2018-07-06T03:50:04.016Z,69.30
2018-07-06T03:52:43.668Z,69.30
2018-07-06T03:55:23.352Z,69.30
2018-07-06T03:58:04.173Z,69.20
2018-07-06T04:00:43.901Z,69.80
2018-07-06T04:03:23.454Z,69.20
2018-07-06T04:06:03.160Z,69.20
2018-07-06T04:08:42.930Z,69.20
2018-07-06T04:11:22.516Z,69.30
2018-07-06T04:14:02.030Z,69.20
2018-07-06T04:16:41.757Z,69.20
2018-07-06T04:19:21.526Z,69.20
2018-07-06T04:22:01.163Z,69.30
2018-07-06T04:24:40.792Z,69.20
2018-07-06T04:27:20.475Z,69.20
2018-07-06T04:30:00.011Z,69.10
2018-07-06T04:32:39.680Z,69.20
2018-07-06T04:35:19.398Z,69.20
2018-07-06T04:37:58.926Z,69.20
2018-07-06T04:40:38.365Z,69.10
2018-07-06T04:43:17.934Z,69.30
2018-07-06T04:45:57.512Z,69.30
2018-07-06T04:48:36.998Z,69.20
2018-07-06T04:51:16.494Z,69.30
2018-07-06T04:53:56.291Z,69.30
2018-07-06T04:56:35.861Z,69.30
2018-07-06T04:59:15.568Z,69.30
2018-07-06T05:01:55.109Z,69.00
2018-07-06T05:04:34.709Z,69.90
2018-07-06T05:07:14.411Z,69.30
2018-07-06T05:09:54.045Z,69.20
2018-07-06T05:12:33.729Z,69.40
2018-07-06T05:15:13.128Z,69.40
2018-07-06T05:20:26.720Z,68.70
2018-07-06T05:23:06.884Z,68.50
2018-07-06T05:25:46.413Z,68.50
2018-07-06T05:28:26.110Z,68.30
2018-07-06T05:31:05.682Z,68.40
2018-07-06T05:33:45.326Z,68.10
2018-07-06T05:36:24.976Z,67.30
2018-07-06T05:39:05.434Z,67.50
2018-07-06T05:41:45.005Z,67.50
2018-07-06T05:44:24.988Z,67.80
2018-07-06T05:47:04.658Z,67.70
2018-07-06T05:49:44.492Z,68.20
2018-07-06T05:52:24.076Z,67.80
2018-07-06T05:55:03.620Z,67.90
2018-07-06T05:57:43.140Z,67.80
2018-07-06T06:00:22.678Z,67.60
2018-07-06T06:05:36.003Z,67.60
2018-07-06T06:10:32.274Z,66.60
2018-07-06T06:13:01.205Z,66.40
2018-07-06T06:15:29.520Z,67.40
2018-07-06T06:20:26.699Z,66.40
2018-07-06T06:22:55.116Z,65.80
2018-07-06T06:25:23.768Z,66.40
2018-07-06T06:27:52.143Z,66.20
2018-07-06T06:30:20.547Z,66.30
2018-07-06T06:32:49.129Z,66.50
2018-07-06T06:37:45.859Z,65.60
2018-07-06T06:42:42.551Z,64.20
2018-07-06T06:45:10.888Z,64.30
2018-07-06T06:47:39.463Z,64.60
2018-07-06T06:50:08.492Z,64.00
2018-07-06T06:52:37.184Z,64.10
2018-07-06T06:55:05.580Z,63.70
2018-07-06T06:57:34.002Z,64.20
2018-07-06T07:00:02.363Z,62.70
2018-07-06T07:02:30.796Z,62.90
2018-07-06T07:04:59.218Z,63.10
2018-07-06T07:07:27.972Z,60.70
2018-07-06T07:09:56.331Z,60.80
2018-07-06T07:12:24.835Z,60.80
2018-07-06T07:14:53.368Z,60.90
2018-07-06T07:17:21.856Z,60.90
2018-07-06T07:19:50.297Z,61.70
2018-07-06T07:22:19.249Z,60.80
2018-07-06T07:24:47.783Z,59.40
2018-07-06T07:27:16.316Z,58.90
2018-07-06T07:29:45.251Z,58.80
2018-07-06T07:32:13.860Z,58.40
2018-07-06T07:34:42.312Z,58.50
2018-07-06T07:37:10.712Z,57.80
2018-07-06T07:39:39.172Z,58.40
2018-07-06T07:42:07.618Z,57.70
2018-07-06T07:44:35.976Z,57.20
2018-07-06T07:47:04.386Z,56.00
2018-07-06T07:49:32.730Z,56.40
2018-07-06T07:52:13.136Z,56.30
2018-07-06T07:54:50.438Z,56.40
2018-07-06T07:57:19.822Z,55.00
2018-07-06T07:59:49.049Z,54.50
2018-07-06T08:02:17.563Z,55.10
2018-07-06T08:04:46.416Z,55.70
2018-07-06T08:07:14.802Z,53.70
2018-07-06T08:09:43.755Z,53.40
2018-07-06T08:12:12.342Z,53.20
2018-07-06T08:14:40.792Z,52.20
2018-07-06T08:17:09.156Z,52.30
2018-07-06T08:19:37.641Z,53.10
2018-07-06T08:22:06.020Z,53.30
2018-07-06T08:27:02.543Z,54.00
2018-07-06T08:29:30.880Z,52.10
2018-07-06T08:31:59.264Z,51.80
2018-07-06T08:34:38.976Z,52.10
2018-07-06T08:37:29.748Z,52.20
2018-07-06T08:39:58.662Z,52.30
2018-07-06T08:42:29.165Z,51.70
2018-07-06T08:44:58.377Z,52.60
2018-07-06T08:47:26.750Z,50.80
2018-07-06T08:49:55.938Z,49.50
2018-07-06T08:52:24.286Z,50.20
2018-07-06T08:54:52.956Z,49.80
2018-07-06T08:57:22.604Z,50.10
2018-07-06T08:59:51.491Z,48.80
2018-07-06T09:02:19.905Z,48.10
2018-07-06T09:04:48.970Z,47.60
2018-07-06T09:07:17.436Z,47.80
2018-07-06T09:09:46.084Z,46.40
2018-07-06T09:14:42.720Z,47.60
2018-07-06T09:17:12.810Z,45.00
2018-07-06T09:19:41.691Z,46.20
2018-07-06T09:22:10.168Z,45.20
2018-07-06T09:24:38.607Z,45.90
2018-07-06T09:27:07.049Z,47.00
2018-07-06T09:29:35.520Z,47.00
2018-07-06T09:32:04.001Z,42.30
2018-07-06T09:34:32.355Z,43.30
2018-07-06T09:37:01.407Z,43.30
2018-07-06T09:39:29.783Z,40.90
2018-07-06T09:41:58.244Z,42.30
2018-07-06T09:44:26.679Z,42.30
2018-07-06T09:46:55.039Z,43.50
2018-07-06T09:49:23.519Z,43.40
2018-07-06T09:51:51.741Z,43.60
2018-07-06T09:54:20.084Z,43.20
2018-07-06T09:56:48.427Z,44.40
2018-07-06T09:59:17.191Z,39.10
2018-07-06T10:01:45.656Z,39.50
2018-07-06T10:04:14.086Z,39.30
2018-07-06T10:06:42.444Z,38.90
2018-07-06T10:09:11.325Z,39.00
2018-07-06T10:11:40.612Z,37.80
2018-07-06T10:14:08.999Z,36.90
2018-07-06T10:16:37.373Z,39.30
2018-07-06T10:19:05.823Z,37.10
2018-07-06T10:21:34.259Z,35.80
2018-07-06T10:24:02.643Z,35.30
2018-07-06T10:26:30.995Z,36.40
2018-07-06T10:29:41.614Z,34.40
2018-07-06T10:32:26.727Z,35.30
2018-07-06T10:34:55.324Z,34.70
2018-07-06T10:37:23.968Z,37.00
2018-07-06T10:39:52.771Z,38.10
2018-07-06T10:42:20.980Z,37.30
2018-07-06T10:44:49.368Z,37.60
2018-07-06T10:47:17.689Z,36.90
2018-07-06T10:49:46.045Z,38.70
2018-07-06T10:52:15.099Z,37.60
2018-07-06T10:54:43.885Z,35.60
2018-07-06T10:57:12.435Z,34.90
2018-07-06T10:59:40.829Z,33.90
2018-07-06T11:02:09.231Z,34.10
2018-07-06T11:04:37.623Z,32.20
2018-07-06T11:07:06.338Z,34.10
2018-07-06T11:09:35.422Z,33.80
2018-07-06T11:12:03.876Z,33.50
2018-07-06T11:14:32.227Z,33.00
2018-07-06T11:17:07.395Z,29.80
2018-07-06T11:19:35.746Z,30.30
2018-07-06T11:22:04.229Z,31.30
2018-07-06T11:24:32.632Z,33.10
2018-07-06T11:27:01.019Z,30.50
2018-07-06T11:29:29.422Z,30.60
2018-07-06T11:31:57.790Z,28.30
2018-07-06T11:34:26.140Z,30.00
2018-07-06T11:36:54.510Z,29.70
2018-07-06T11:39:22.880Z,29.50
2018-07-06T11:41:51.251Z,29.00
2018-07-06T11:44:20.314Z,28.10
2018-07-06T11:46:48.663Z,29.30
2018-07-06T11:49:17.128Z,28.70
2018-07-06T11:51:45.516Z,28.90
2018-07-06T11:54:13.887Z,28.20
2018-07-06T11:56:42.259Z,29.20
2018-07-06T11:59:10.659Z,28.70
2018-07-06T12:01:39.068Z,29.30
2018-07-06T12:04:07.536Z,28.80
2018-07-06T12:06:35.836Z,28.80
2018-07-06T12:09:04.878Z,28.00
2018-07-06T12:11:33.414Z,28.40
2018-07-06T12:14:01.910Z,29.20
2018-07-06T12:16:30.238Z,29.90
2018-07-06T12:18:58.656Z,28.70
2018-07-06T12:21:27.044Z,29.60
2018-07-06T12:23:55.398Z,27.70
2018-07-06T12:26:23.832Z,28.50
2018-07-06T12:28:52.151Z,28.40
2018-07-06T12:31:20.533Z,28.20
2018-07-06T12:33:48.906Z,28.40
2018-07-06T12:36:17.248Z,29.10
2018-07-06T12:38:46.288Z,28.50
2018-07-06T12:41:14.670Z,29.30
2018-07-06T12:43:43.045Z,28.30
2018-07-06T12:46:11.468Z,28.70
2018-07-06T12:48:39.862Z,28.80
2018-07-06T12:51:08.228Z,27.40
2018-07-06T12:53:36.585Z,27.00
2018-07-06T12:56:05.054Z,27.70
2018-07-06T13:01:01.594Z,27.00
2018-07-06T13:03:30.556Z,27.90
2018-07-06T13:05:58.978Z,28.80
2018-07-06T13:08:27.364Z,29.10
2018-07-06T13:10:55.793Z,29.50
2018-07-06T13:13:24.176Z,29.60
2018-07-06T13:15:52.540Z,30.50
2018-07-06T13:18:20.986Z,29.70
2018-07-06T13:20:49.518Z,28.60
2018-07-06T13:23:17.877Z,28.20
2018-07-06T13:25:46.265Z,27.90
2018-07-06T13:28:14.692Z,27.90
2018-07-06T13:30:43.072Z,26.80
2018-07-06T13:33:11.424Z,26.50
2018-07-06T13:35:39.839Z,28.80
2018-07-06T13:38:08.186Z,27.40
2018-07-06T13:40:37.101Z,27.60
2018-07-06T13:45:33.810Z,26.80
2018-07-06T13:48:02.194Z,26.70
2018-07-06T13:50:30.712Z,27.80
2018-07-06T13:52:59.123Z,27.40
2018-07-06T13:55:27.476Z,27.50
2018-07-06T13:57:55.836Z,27.30
2018-07-06T14:00:24.233Z,27.30
2018-07-06T14:02:52.820Z,27.40
2018-07-06T14:05:21.228Z,27.60
2018-07-06T14:07:49.716Z,26.60
2018-07-06T14:10:18.110Z,25.30
2018-07-06T14:12:46.459Z,26.00
2018-07-06T14:15:14.796Z,26.80
2018-07-06T14:17:43.373Z,28.30
2018-07-06T14:20:11.797Z,28.20
2018-07-06T14:22:40.323Z,28.50
2018-07-06T14:25:08.742Z,28.30
2018-07-06T14:27:37.095Z,27.50
2018-07-06T14:30:06.284Z,27.70
2018-07-06T14:32:34.649Z,28.00
2018-07-06T14:35:03.146Z,27.80
2018-07-06T14:37:31.503Z,28.10
2018-07-06T14:39:59.849Z,28.90
2018-07-06T14:42:28.231Z,29.60
2018-07-06T14:44:56.598Z,29.10
2018-07-06T14:47:24.952Z,29.50
2018-07-06T14:49:53.329Z,30.50
2018-07-06T14:52:21.713Z,30.40
2018-07-06T14:54:50.177Z,31.40
2018-07-06T14:57:18.548Z,31.80
2018-07-06T14:59:47.105Z,32.60
2018-07-06T15:02:15.576Z,33.50
2018-07-06T15:04:43.948Z,33.20
2018-07-06T15:07:12.326Z,33.40
2018-07-06T15:09:47.226Z,34.20
2018-07-06T15:12:15.587Z,34.80
2018-07-06T15:14:44.060Z,34.70
2018-07-06T15:17:12.420Z,35.40
2018-07-06T15:19:40.826Z,36.70
2018-07-06T15:22:09.210Z,36.20
2018-07-06T15:24:37.598Z,36.40
2018-07-06T15:29:34.315Z,36.20
2018-07-06T15:32:02.940Z,36.70
2018-07-06T15:34:31.301Z,38.60
2018-07-06T15:36:59.677Z,39.50
2018-07-06T15:39:27.999Z,39.80
2018-07-06T15:41:56.391Z,40.70
2018-07-06T15:44:24.764Z,40.70
2018-07-06T15:46:53.476Z,39.60
2018-07-06T15:49:22.004Z,39.60
2018-07-06T15:54:18.474Z,38.60
2018-07-06T15:59:14.950Z,38.90
2018-07-06T16:01:43.329Z,39.60
2018-07-06T16:04:11.755Z,39.60
2018-07-06T16:06:40.125Z,39.60
2018-07-06T16:09:08.472Z,39.60
2018-07-06T16:11:36.858Z,39.80
2018-07-06T16:14:05.283Z,40.10
2018-07-06T16:16:33.729Z,41.40
2018-07-06T16:19:02.096Z,41.50
2018-07-06T16:21:30.470Z,40.30
2018-07-06T16:23:58.955Z,40.00
2018-07-06T16:26:27.468Z,39.60
2018-07-06T16:28:55.839Z,39.20
2018-07-06T16:31:24.209Z,39.50
2018-07-06T16:33:52.538Z,39.00
2018-07-06T16:36:20.963Z,39.30
2018-07-06T16:38:49.435Z,40.30
2018-07-06T16:41:17.832Z,40.50
2018-07-06T16:43:46.227Z,40.30
2018-07-06T16:46:15.098Z,39.60
2018-07-06T16:48:44.020Z,38.30
2018-07-06T16:53:40.750Z,38.10
2018-07-06T16:56:09.129Z,34.20
2018-07-06T16:58:37.699Z,34.10
2018-07-06T17:01:06.063Z,34.50
2018-07-06T17:03:34.484Z,34.10
2018-07-06T17:06:02.951Z,34.50
2018-07-06T17:08:31.350Z,33.50
2018-07-06T17:15:55.944Z,34.20
2018-07-06T17:18:24.305Z,35.50
2018-07-06T17:20:52.643Z,35.80
2018-07-06T17:23:21.031Z,35.00
2018-07-06T17:25:49.436Z,34.90
2018-07-06T17:28:17.777Z,35.00
2018-07-06T17:35:42.313Z,35.90
2018-07-06T17:38:10.672Z,35.90
2018-07-06T17:43:07.309Z,34.60
2018-07-06T17:45:35.671Z,35.40
2018-07-06T17:48:04.183Z,35.90
2018-07-06T17:50:33.137Z,35.70
2018-07-06T17:53:01.543Z,36.40
2018-07-06T17:55:29.981Z,36.40
2018-07-06T17:57:58.351Z,38.00
2018-07-06T18:00:26.737Z,34.80
2018-07-06T18:02:55.138Z,36.90
2018-07-06T18:05:23.522Z,37.80
2018-07-06T18:07:51.920Z,39.60
2018-07-06T18:10:21.198Z,39.60
2018-07-06T18:12:49.596Z,39.60
2018-07-06T18:15:18.041Z,39.80
2018-07-06T18:17:46.475Z,37.40
2018-07-06T18:20:15.565Z,37.10
2018-07-06T18:30:08.344Z,34.20
2018-07-06T18:32:36.716Z,34.30
2018-07-06T18:35:05.099Z,34.30
2018-07-06T18:37:33.562Z,34.10
2018-07-06T18:40:01.883Z,33.50
2018-07-06T18:42:30.400Z,34.10
2018-07-06T18:44:58.830Z,34.00
2018-07-06T18:47:27.247Z,35.10
2018-07-06T18:49:55.680Z,34.90
2018-07-06T18:52:24.104Z,34.50
2018-07-06T18:54:52.549Z,34.80
2018-07-06T18:57:20.983Z,34.90
2018-07-06T18:59:49.408Z,34.80
2018-07-06T19:02:17.834Z,33.60
2018-07-06T19:04:46.260Z,33.50
2018-07-06T19:07:14.626Z,33.40
2018-07-06T19:09:43.552Z,34.30
2018-07-06T19:12:11.987Z,33.30
2018-07-06T19:14:40.412Z,34.40
2018-07-06T19:17:09.010Z,34.80
2018-07-06T19:19:37.465Z,34.70
2018-07-06T19:22:06.466Z,35.00
2018-07-06T19:24:34.928Z,34.50
2018-07-06T19:27:03.302Z,35.00
2018-07-06T19:29:32.523Z,35.30
2018-07-06T19:32:00.945Z,35.50
2018-07-06T19:34:29.320Z,35.40
2018-07-06T19:36:58.750Z,36.50
2018-07-06T19:39:27.219Z,36.40
2018-07-06T19:41:55.618Z,36.00
2018-07-06T19:44:24.011Z,36.40
2018-07-06T19:46:52.458Z,36.80
2018-07-06T19:49:20.885Z,36.20
2018-07-06T19:54:17.440Z,37.20
2018-07-06T19:59:20.584Z,37.40
2018-07-06T20:01:48.992Z,37.40
2018-07-06T20:04:17.554Z,38.00
2018-07-06T20:06:45.956Z,38.00
2018-07-06T20:09:15.891Z,38.30
2018-07-06T20:11:44.316Z,38.70
2018-07-06T20:14:13.305Z,38.50
2018-07-06T20:16:41.716Z,38.60
2018-07-06T20:19:10.688Z,38.90
2018-07-06T20:21:39.083Z,39.80
2018-07-06T20:24:07.448Z,40.70
2018-07-06T20:26:35.840Z,41.90
2018-07-06T20:29:04.348Z,42.00
2018-07-06T20:31:32.694Z,42.50
2018-07-06T20:34:01.152Z,43.40
2018-07-06T20:36:29.608Z,44.40
2018-07-06T20:38:57.932Z,44.70
2018-07-06T20:41:26.333Z,45.20
2018-07-06T20:43:54.732Z,45.20
2018-07-06T20:46:23.216Z,45.60
2018-07-06T20:48:51.678Z,46.00
2018-07-06T20:51:20.089Z,46.30
2018-07-06T20:53:48.575Z,46.60
2018-07-06T20:58:48.417Z,47.90
2018-07-06T21:01:16.862Z,48.10
2018-07-06T21:03:45.252Z,48.40
2018-07-06T21:06:13.681Z,47.90
2018-07-06T21:08:42.118Z,47.80
2018-07-06T21:11:10.571Z,48.10
2018-07-06T21:13:38.956Z,48.20
2018-07-06T21:16:07.390Z,48.30
2018-07-06T21:18:35.830Z,48.40
2018-07-06T21:21:04.824Z,48.90
2018-07-06T21:23:33.204Z,49.10
2018-07-06T21:26:02.267Z,49.20
2018-07-06T21:28:30.657Z,49.20
2018-07-06T21:30:59.129Z,48.90
2018-07-06T21:33:27.530Z,48.50
2018-07-06T21:35:56.068Z,48.40
2018-07-06T21:38:24.442Z,48.70
2018-07-06T21:40:52.822Z,49.10
2018-07-06T21:43:21.240Z,49.00
2018-07-06T21:45:49.647Z,49.10
2018-07-06T21:48:18.600Z,48.90
2018-07-06T21:50:47.098Z,48.50
2018-07-06T21:53:15.554Z,49.00
2018-07-06T21:55:43.956Z,49.30
2018-07-06T21:58:12.332Z,49.50
2018-07-06T22:00:41.818Z,49.50
2018-07-06T22:03:11.198Z,49.40
2018-07-06T22:05:40.422Z,50.00
2018-07-06T22:08:09.404Z,50.00
2018-07-06T22:10:38.303Z,49.90
2018-07-06T22:13:07.428Z,49.90
2018-07-06T22:15:42.362Z,50.10
2018-07-06T22:18:11.102Z,50.50
2018-07-06T22:20:39.533Z,51.20
2018-07-06T22:23:07.891Z,50.60
2018-07-06T22:25:36.215Z,50.40
2018-07-06T22:28:04.818Z,50.90
2018-07-06T22:30:33.601Z,51.00
2018-07-06T22:33:02.118Z,50.80
2018-07-06T22:35:30.545Z,50.70
2018-07-06T22:42:55.247Z,51.10
2018-07-06T22:45:23.625Z,50.90
2018-07-06T22:47:52.011Z,51.30
2018-07-06T22:50:20.473Z,52.00
2018-07-06T22:52:48.876Z,53.20
2018-07-06T22:57:45.619Z,54.30
2018-07-06T23:00:14.077Z,54.60
2018-07-06T23:02:42.435Z,55.40
2018-07-06T23:05:12.840Z,55.80
2018-07-06T23:07:41.177Z,55.70
2018-07-06T23:10:09.665Z,56.00
2018-07-06T23:12:38.836Z,56.20
2018-07-06T23:15:07.275Z,56.20
2018-07-06T23:17:35.751Z,56.10
2018-07-06T23:22:43.952Z,55.70
2018-07-06T23:25:12.499Z,55.60
2018-07-06T23:27:40.907Z,55.50
2018-07-06T23:30:09.301Z,55.40
2018-07-06T23:35:05.882Z,55.30
2018-07-06T23:37:34.255Z,55.20
2018-07-06T23:40:02.618Z,55.10
2018-07-06T23:42:30.973Z,55.00
2018-07-06T23:44:59.331Z,54.80
2018-07-06T23:47:27.771Z,54.80
2018-07-06T23:49:56.112Z,54.90
2018-07-06T23:52:24.460Z,55.00
2018-07-06T23:54:52.865Z,55.10
2018-07-06T23:57:21.391Z,55.30
2018-07-06T23:59:49.803Z,55.30
